Time;durP1;ratioP1;P1;durP2;ratioP2;P2;SDS_P1;SDS_P2;PMS_P1;PMS_P2;Temp;Humidity;BMP_temperature;BMP_pressure;BME280_temperature;BME280_humidity;BME280_pressure;Samples;Min_cycle;Max_cycle;Signal;HPM_P1;HPM_P2
2021/04/16 00:01:38;;;;;;;9.57;1.77;;;4.10;99.90;;;;;;5187671;28;20571;-70
2021/04/16 00:04:09;;;;;;;7.93;1.80;;;4.10;99.90;;;;;;5187351;28;20235;-70
2021/04/16 00:06:42;;;;;;;6.73;1.70;;;4.10;99.90;;;;;;5187298;28;20237;-70
2021/04/16 00:09:15;;;;;;;5.20;1.50;;;4.10;99.90;;;;;;5187609;28;20214;-69
2021/04/16 00:11:46;;;;;;;6.90;1.50;;;4.10;99.90;;;;;;5187466;28;20214;-70
2021/04/16 00:14:18;;;;;;;10.70;2.10;;;4.10;99.90;;;;;;5187579;28;20212;-70
2021/04/16 00:16:50;;;;;;;7.20;2.17;;;4.10;99.90;;;;;;5187205;28;20217;-70
2021/04/16 00:19:22;;;;;;;11.47;2.17;;;4.10;99.90;;;;;;5169998;28;20207;-71
2021/04/16 00:21:54;;;;;;;4.90;1.57;;;4.10;99.90;;;;;;5187453;28;20219;-69
2021/04/16 00:24:25;;;;;;;6.60;1.57;;;4.10;99.90;;;;;;5187314;28;20215;-70
2021/04/16 00:26:57;;;;;;;9.77;2.93;;;4.10;99.90;;;;;;5187607;28;20704;-69
2021/04/16 00:29:28;;;;;;;8.20;2.17;;;4.10;99.90;;;;;;5187481;28;20689;-70
2021/04/16 00:32:00;;;;;;;9.23;1.63;;;4.10;99.90;;;;;;5187135;28;20685;-69
2021/04/16 00:34:31;;;;;;;7.37;1.63;;;4.10;99.90;;;;;;5187151;28;20572;-70
2021/04/16 00:37:03;;;;;;;6.73;2.03;;;4.10;99.90;;;;;;5187160;28;20293;-70
2021/04/16 00:39:34;;;;;;;10.37;1.87;;;4.10;99.90;;;;;;5187083;28;20297;-70
2021/04/16 00:42:06;;;;;;;5.90;1.70;;;4.10;99.90;;;;;;5187121;28;20211;-71
2021/04/16 00:44:38;;;;;;;7.33;1.67;;;4.00;99.90;;;;;;5187071;28;20202;-72
2021/04/16 00:47:14;;;;;;;5.50;1.67;;;4.00;99.90;;;;;;5169312;28;20230;-70
2021/04/16 00:49:49;;;;;;;5.80;1.67;;;4.00;99.90;;;;;;5186704;28;20289;-70
2021/04/16 00:52:31;;;;;;;9.67;1.83;;;4.00;99.90;;;;;;5186694;28;20207;-70
2021/04/16 00:55:05;;;;;;;5.47;1.50;;;4.00;99.90;;;;;;5186732;28;20666;-70
2021/04/16 00:57:37;;;;;;;7.07;1.90;;;4.00;99.90;;;;;;5186809;28;20198;-69
2021/04/16 01:00:11;;;;;;;5.97;1.80;;;3.90;99.90;;;;;;5169220;28;20217;-70
2021/04/16 01:02:43;;;;;;;8.47;2.10;;;3.90;99.90;;;;;;5186521;28;20208;-71
2021/04/16 01:05:15;;;;;;;6.90;1.63;;;3.90;99.90;;;;;;5152899;28;20242;-70
2021/04/16 01:07:47;;;;;;;10.37;2.00;;;3.90;99.90;;;;;;5186683;28;20214;-70
2021/04/16 01:10:20;;;;;;;5.60;1.47;;;3.90;99.90;;;;;;5186986;28;20198;-70
2021/04/16 01:12:52;;;;;;;7.80;1.90;;;3.90;99.90;;;;;;5186436;28;20211;-71
2021/04/16 01:15:33;;;;;;;8.07;1.60;;;3.90;99.90;;;;;;5186484;28;20294;-71
2021/04/16 01:18:34;;;;;;;9.30;1.87;;;3.90;99.90;;;;;;5169479;28;20207;-70
2021/04/16 01:21:10;;;;;;;10.77;2.00;;;3.90;99.90;;;;;;5185290;28;20205;-70
2021/04/16 01:24:03;;;;;;;7.63;1.47;;;3.80;99.90;;;;;;5186442;28;20213;-71
2021/04/16 01:26:38;;;;;;;8.67;1.87;;;3.90;99.90;;;;;;5186219;28;20321;-70
2021/04/16 01:29:10;;;;;;;4.93;1.83;;;3.80;99.90;;;;;;5168922;28;20198;-70
2021/04/16 01:31:47;;;;;;;7.23;1.70;;;3.80;99.90;;;;;;5186410;28;20202;-69
2021/04/16 01:34:25;;;;;;;4.70;1.47;;;3.80;99.90;;;;;;5186124;28;20198;-71
2021/04/16 01:36:58;;;;;;;10.60;2.10;;;3.80;99.90;;;;;;5186136;28;20202;-70
2021/04/16 01:39:31;;;;;;;7.03;1.70;;;3.80;99.90;;;;;;5168917;28;20202;-70
2021/04/16 01:42:03;;;;;;;6.07;1.83;;;3.80;99.90;;;;;;5186168;28;20577;-70
2021/04/16 01:44:34;;;;;;;9.23;1.70;;;3.80;99.90;;;;;;5186256;28;20211;-70
2021/04/16 01:47:08;;;;;;;6.10;1.67;;;3.80;99.90;;;;;;5186036;28;20230;-70
2021/04/16 01:49:43;;;;;;;8.47;1.80;;;3.80;99.90;;;;;;5186296;28;20714;-70
2021/04/16 01:52:29;;;;;;;10.80;2.07;;;3.90;99.90;;;;;;5186232;28;20683;-70
2021/04/16 01:55:02;;;;;;;13.37;2.03;;;3.90;99.90;;;;;;5168849;28;20569;-71
2021/04/16 01:57:35;;;;;;;8.67;1.80;;;3.90;99.90;;;;;;5170413;28;20230;-71
2021/04/16 02:00:21;;;;;;;10.67;2.10;;;3.90;99.90;;;;;;5190154;28;20230;-69
2021/04/16 02:02:52;;;;;;;6.20;1.73;;;3.90;99.90;;;;;;5189871;28;20560;-70
2021/04/16 02:05:24;;;;;;;8.40;2.10;;;3.90;99.90;;;;;;5189798;28;20239;-71
2021/04/16 02:07:55;;;;;;;11.80;1.93;;;3.90;99.90;;;;;;5189701;28;20692;-69
2021/04/16 02:10:27;;;;;;;8.03;2.07;;;3.90;99.90;;;;;;5189708;28;20209;-72
2021/04/16 02:12:58;;;;;;;11.10;1.70;;;3.90;99.90;;;;;;5189624;28;20215;-71
2021/04/16 02:15:30;;;;;;;11.07;1.83;;;3.90;99.90;;;;;;5189708;28;20207;-70
2021/04/16 02:18:01;;;;;;;7.80;1.53;;;3.90;99.90;;;;;;5189460;28;20215;-70
2021/04/16 02:20:33;;;;;;;8.20;2.03;;;3.90;99.90;;;;;;5189731;28;20203;-71
2021/04/16 02:23:05;;;;;;;8.67;1.87;;;4.00;99.90;;;;;;5189807;28;20207;-70
2021/04/16 02:25:37;;;;;;;7.00;1.80;;;4.00;99.90;;;;;;5189586;28;20235;-70
2021/04/16 02:28:08;;;;;;;10.43;1.87;;;4.00;99.90;;;;;;5189598;28;20215;-69
2021/04/16 02:30:40;;;;;;;14.30;2.03;;;4.00;99.90;;;;;;5189437;28;20673;-69
2021/04/16 02:33:11;;;;;;;7.80;2.03;;;4.00;99.90;;;;;;5189075;28;20206;-70
2021/04/16 02:35:45;;;;;;;7.33;1.80;;;3.90;99.90;;;;;;5189501;28;20729;-70
2021/04/16 02:38:17;;;;;;;4.93;1.67;;;4.00;99.90;;;;;;5189416;28;20210;-70
2021/04/16 02:40:48;;;;;;;8.03;1.87;;;3.90;99.90;;;;;;5189391;28;20222;-70
2021/04/16 02:43:19;;;;;;;6.07;1.70;;;3.90;99.90;;;;;;5189256;28;20211;-71
2021/04/16 02:45:51;;;;;;;4.37;1.43;;;3.90;99.90;;;;;;5189143;28;20226;-70
2021/04/16 02:48:22;;;;;;;8.37;2.50;;;3.90;99.90;;;;;;5189139;28;20650;-69
2021/04/16 02:50:54;;;;;;;8.93;2.50;;;3.90;99.90;;;;;;5189006;28;20207;-69
2021/04/16 02:53:25;;;;;;;7.70;2.10;;;3.90;99.90;;;;;;5188886;28;20207;-71
2021/04/16 02:55:57;;;;;;;8.67;2.17;;;3.90;99.90;;;;;;5189787;28;20693;-69
2021/04/16 02:58:29;;;;;;;5.27;1.70;;;3.90;99.90;;;;;;5189362;28;20207;-69
2021/04/16 03:01:01;;;;;;;8.97;1.97;;;3.90;99.90;;;;;;5188724;28;20217;-71
2021/04/16 03:03:34;;;;;;;7.47;1.80;;;3.90;99.90;;;;;;5188430;28;20217;-70
2021/04/16 03:06:07;;;;;;;7.27;1.80;;;3.90;99.90;;;;;;5188589;28;20718;-71
2021/04/16 03:08:39;;;;;;;8.40;1.83;;;3.90;99.90;;;;;;5188565;28;20200;-71
2021/04/16 03:11:11;;;;;;;8.97;2.10;;;3.90;99.90;;;;;;5171191;28;20219;-70
2021/04/16 03:13:42;;;;;;;9.17;2.10;;;3.90;99.90;;;;;;5188677;28;20214;-70
2021/04/16 03:16:15;;;;;;;7.80;1.90;;;3.90;99.90;;;;;;5188681;28;20213;-69
2021/04/16 03:18:47;;;;;;;8.73;2.33;;;3.90;99.90;;;;;;5188482;28;20231;-69
2021/04/16 03:21:19;;;;;;;5.87;1.80;;;3.90;99.90;;;;;;5188596;28;20210;-71
2021/04/16 03:23:51;;;;;;;11.13;1.80;;;3.90;99.90;;;;;;5188419;28;20210;-69
2021/04/16 03:26:23;;;;;;;8.27;2.60;;;3.90;99.90;;;;;;5188441;28;20237;-69
2021/04/16 03:28:57;;;;;;;8.33;1.77;;;3.90;99.90;;;;;;5170983;28;20202;-69
2021/04/16 03:31:28;;;;;;;11.47;1.90;;;3.80;99.90;;;;;;5188350;28;20203;-69
2021/04/16 03:34:01;;;;;;;7.67;2.33;;;3.80;99.90;;;;;;5187969;28;20203;-69
2021/04/16 03:36:32;;;;;;;9.23;2.27;;;3.90;99.90;;;;;;5170774;28;20616;-69
2021/04/16 03:39:04;;;;;;;6.03;1.93;;;3.90;99.90;;;;;;5188130;28;20240;-70
2021/04/16 03:41:35;;;;;;;5.53;1.70;;;3.90;99.90;;;;;;5188086;28;20210;-69
2021/04/16 03:44:07;;;;;;;12.43;2.30;;;3.90;99.90;;;;;;5188178;28;20207;-69
2021/04/16 03:46:38;;;;;;;10.27;2.30;;;3.90;99.90;;;;;;5188161;28;20222;-70
2021/04/16 03:49:10;;;;;;;4.77;1.90;;;3.90;99.90;;;;;;5170303;28;20233;-70
2021/04/16 03:51:50;;;;;;;9.47;2.10;;;3.90;99.90;;;;;;5188286;28;20226;-70
2021/04/16 03:54:23;;;;;;;8.00;1.97;;;3.90;99.90;;;;;;5188033;28;20214;-72
2021/04/16 03:56:54;;;;;;;13.43;2.03;;;3.90;99.90;;;;;;5187883;28;20577;-70
2021/04/16 03:59:26;;;;;;;9.83;2.07;;;3.90;99.90;;;;;;5187829;28;20211;-70
2021/04/16 04:01:58;;;;;;;11.13;2.40;;;3.90;99.90;;;;;;5187613;28;20202;-69
2021/04/16 04:04:29;;;;;;;7.83;2.03;;;3.90;99.90;;;;;;5187460;28;20771;-70
2021/04/16 04:07:01;;;;;;;8.30;2.10;;;3.90;99.90;;;;;;5187559;28;20230;-70
2021/04/16 04:09:34;;;;;;;5.97;1.77;;;3.90;99.90;;;;;;5187467;28;20543;-70
2021/04/16 04:12:06;;;;;;;9.73;2.00;;;3.90;99.90;;;;;;5187298;28;20662;-71
2021/04/16 04:14:38;;;;;;;7.37;1.97;;;4.00;99.90;;;;;;5187253;28;20199;-70
2021/04/16 04:17:23;;;;;;;9.17;2.33;;;4.00;99.90;;;;;;5187255;28;20206;-70
2021/04/16 04:19:55;;;;;;;7.73;1.80;;;3.90;99.90;;;;;;5169294;28;20242;-69
2021/04/16 04:22:27;;;;;;;7.93;1.93;;;3.90;99.90;;;;;;5187054;28;20213;-71
2021/04/16 04:24:58;;;;;;;6.57;1.93;;;3.90;99.90;;;;;;5187133;28;20298;-71
2021/04/16 04:27:29;;;;;;;5.50;1.63;;;3.90;99.90;;;;;;5187136;28;20243;-71
2021/04/16 04:30:02;;;;;;;10.27;1.80;;;3.90;99.90;;;;;;5187229;28;20203;-73
2021/04/16 04:32:34;;;;;;;7.20;1.87;;;4.00;99.90;;;;;;5187393;28;20210;-69
2021/04/16 04:35:06;;;;;;;18.87;2.67;;;4.00;99.90;;;;;;5186712;28;20242;-70
2021/04/16 04:37:38;;;;;;;8.47;2.10;;;4.00;99.90;;;;;;5170430;28;20566;-70
2021/04/16 04:40:11;;;;;;;10.80;1.87;;;3.90;99.90;;;;;;5169742;28;20557;-71
2021/04/16 04:42:43;;;;;;;6.00;1.90;;;3.90;99.90;;;;;;5187683;28;20214;-72
2021/04/16 04:45:15;;;;;;;5.20;1.90;;;4.00;99.90;;;;;;5187126;28;20215;-74
2021/04/16 04:47:47;;;;;;;8.07;1.80;;;3.90;99.90;;;;;;5169348;28;20233;-71
2021/04/16 04:50:21;;;;;;;6.50;1.80;;;3.90;99.90;;;;;;5186853;28;20213;-72
2021/04/16 04:52:54;;;;;;;5.53;1.70;;;3.90;99.90;;;;;;5187018;28;20210;-70
2021/04/16 04:55:29;;;;;;;7.17;1.93;;;3.90;99.90;;;;;;5186877;28;20213;-69
2021/04/16 04:58:02;;;;;;;6.20;1.97;;;3.90;99.90;;;;;;5187033;28;20576;-70
2021/04/16 05:00:33;;;;;;;5.93;2.20;;;3.90;99.90;;;;;;5186951;28;20215;-71
2021/04/16 05:03:05;;;;;;;9.10;2.43;;;4.00;99.90;;;;;;5187237;28;20211;-69
2021/04/16 05:05:36;;;;;;;3.63;1.70;;;3.90;99.90;;;;;;5168912;28;20338;-72
2021/04/16 05:08:08;;;;;;;6.50;1.67;;;3.90;99.90;;;;;;5176793;28;20294;-71
2021/04/16 05:10:39;;;;;;;6.27;2.03;;;3.90;99.90;;;;;;5166034;28;20568;-70
2021/04/16 05:13:11;;;;;;;5.60;2.00;;;3.90;99.90;;;;;;5166032;28;20667;-70
2021/04/16 05:15:42;;;;;;;6.83;1.63;;;3.90;99.90;;;;;;5165849;28;20214;-72
2021/04/16 05:18:14;;;;;;;8.13;1.93;;;4.00;99.90;;;;;;5165939;28;20200;-70
2021/04/16 05:20:46;;;;;;;5.13;1.50;;;4.00;99.90;;;;;;5148739;28;20196;-73
2021/04/16 05:23:18;;;;;;;8.17;1.63;;;4.00;99.90;;;;;;5148335;28;20207;-73
2021/04/16 05:25:49;;;;;;;5.33;1.70;;;4.10;99.90;;;;;;5165679;28;20276;-74
2021/04/16 05:28:21;;;;;;;7.17;1.53;;;4.10;99.90;;;;;;5165909;28;20207;-73
2021/04/16 05:30:52;;;;;;;6.37;1.47;;;4.20;99.90;;;;;;5148332;28;20218;-73
2021/04/16 05:33:23;;;;;;;4.60;1.60;;;4.30;99.90;;;;;;5168300;28;20218;-73
2021/04/16 05:35:55;;;;;;;6.20;1.43;;;4.30;99.90;;;;;;5170240;28;20196;-74
2021/04/16 05:38:26;;;;;;;4.43;1.80;;;4.30;99.90;;;;;;5169758;28;20211;-73
2021/04/16 05:40:57;;;;;;;8.43;1.80;;;4.40;99.90;;;;;;5154966;28;20207;-74
2021/04/16 05:43:29;;;;;;;9.27;1.73;;;4.40;99.90;;;;;;5190157;28;20229;-72
2021/04/16 05:46:04;;;;;;;2.57;1.40;;;4.40;99.90;;;;;;5186812;28;20222;-75
2021/04/16 05:48:35;;;;;;;5.33;1.43;;;4.50;99.90;;;;;;5169141;28;20196;-72
2021/04/16 05:51:07;;;;;;;6.10;1.77;;;4.50;99.90;;;;;;5169835;28;20199;-76
2021/04/16 05:53:39;;;;;;;5.53;1.50;;;4.50;99.90;;;;;;5169477;28;20572;-73
2021/04/16 05:56:10;;;;;;;3.33;1.50;;;4.60;99.90;;;;;;5167437;28;20581;-74
2021/04/16 05:58:42;;;;;;;4.57;1.53;;;4.60;99.90;;;;;;5169142;28;20199;-74
2021/04/16 06:01:13;;;;;;;4.07;1.80;;;4.60;99.90;;;;;;5160194;28;20195;-72
2021/04/16 06:03:47;;;;;;;7.27;1.80;;;4.50;99.90;;;;;;5168346;28;20218;-73
2021/04/16 06:06:18;;;;;;;6.40;1.60;;;4.50;99.90;;;;;;5172590;28;20216;-70
2021/04/16 06:08:50;;;;;;;6.63;2.00;;;4.60;99.90;;;;;;5166456;28;20204;-69
2021/04/16 06:11:22;;;;;;;7.10;1.90;;;4.60;99.90;;;;;;5170244;28;20283;-74
2021/04/16 06:13:53;;;;;;;6.20;1.70;;;4.50;99.90;;;;;;5162746;28;20211;-70
2021/04/16 06:16:25;;;;;;;8.23;2.13;;;4.40;99.90;;;;;;5166628;28;20204;-79
2021/04/16 06:18:56;;;;;;;5.27;1.60;;;4.40;99.90;;;;;;5162984;28;20237;-70
2021/04/16 06:21:28;;;;;;;4.73;1.73;;;4.40;99.90;;;;;;5165860;28;20191;-69
2021/04/16 06:23:59;;;;;;;5.70;1.73;;;4.40;99.90;;;;;;5164896;28;20203;-75
2021/04/16 06:26:31;;;;;;;8.23;1.90;;;4.40;99.90;;;;;;5166378;28;20231;-69
2021/04/16 06:29:05;;;;;;;5.47;1.70;;;4.40;99.90;;;;;;5164858;28;20224;-75
2021/04/16 06:31:37;;;;;;;3.77;1.73;;;4.40;99.90;;;;;;5165421;28;20199;-71
2021/04/16 06:34:08;;;;;;;6.17;1.70;;;4.40;99.90;;;;;;5146778;28;20215;-70
2021/04/16 06:36:40;;;;;;;7.93;1.80;;;4.50;99.90;;;;;;5144989;28;20206;-73
2021/04/16 06:39:12;;;;;;;5.03;2.00;;;4.50;99.90;;;;;;5164601;28;20208;-75
2021/04/16 06:41:47;;;;;;;7.43;1.90;;;4.50;99.90;;;;;;5165187;28;20583;-75
2021/04/16 06:44:20;;;;;;;5.37;1.90;;;4.60;99.90;;;;;;5165352;28;20235;-72
2021/04/16 06:47:21;;;;;;;6.17;2.43;;;4.60;99.90;;;;;;5148123;28;20227;-73
2021/04/16 06:49:57;;;;;;;4.20;1.80;;;4.60;99.90;;;;;;5140620;28;20235;-71
2021/04/16 06:52:48;;;;;;;4.93;1.90;;;4.70;99.90;;;;;;5149610;28;20302;-73
2021/04/16 06:55:33;;;;;;;4.67;1.80;;;4.70;99.90;;;;;;5161619;28;20206;-71
2021/04/16 06:58:19;;;;;;;7.33;2.30;;;4.70;99.90;;;;;;5160611;28;20223;-74
2021/04/16 07:01:18;;;;;;;5.63;2.00;;;4.80;99.90;;;;;;5164679;28;20200;-73
2021/04/16 07:04:15;;;;;;;7.43;2.00;;;4.90;99.90;;;;;;5156483;28;20246;-74
2021/04/16 07:06:49;;;;;;;7.40;2.30;;;5.10;99.90;;;;;;5185756;28;20226;-73
2021/04/16 07:09:32;;;;;;;6.03;2.30;;;5.10;99.90;;;;;;5184733;28;20205;-72
2021/04/16 07:12:13;;;;;;;5.43;3.07;;;5.20;99.90;;;;;;5185095;28;20233;-73
2021/04/16 07:14:51;;;;;;;7.77;2.37;;;5.20;99.90;;;;;;5184560;28;20198;-73
2021/04/16 07:17:28;;;;;;;7.87;2.23;;;5.30;99.90;;;;;;5182973;28;20199;-73
2021/04/16 07:20:00;;;;;;;8.07;2.83;;;5.50;99.90;;;;;;5184558;28;20214;-72
2021/04/16 07:22:50;;;;;;;4.93;2.23;;;5.50;99.90;;;;;;5184986;28;20211;-75
2021/04/16 07:25:25;;;;;;;5.30;2.00;;;5.70;99.90;;;;;;5185409;28;20221;-73
2021/04/16 07:28:03;;;;;;;5.73;2.30;;;5.70;99.90;;;;;;5184177;28;20237;-73
2021/04/16 07:30:39;;;;;;;8.03;2.53;;;5.70;99.90;;;;;;5187052;28;20210;-73
2021/04/16 07:33:42;;;;;;;3.83;2.17;;;5.70;99.90;;;;;;5186577;28;20642;-73
2021/04/16 07:36:20;;;;;;;7.30;2.57;;;5.80;99.90;;;;;;5184768;28;20553;-73
2021/04/16 07:39:32;;;;;;;7.83;1.97;;;6.00;99.90;;;;;;5167302;28;20616;-73
2021/04/16 07:42:09;;;;;;;8.57;2.10;;;6.10;99.90;;;;;;5082521;29;20217;-73
2021/04/16 07:45:05;;;;;;;7.10;2.40;;;6.10;99.90;;;;;;5082369;29;20210;-74
2021/04/16 07:47:37;;;;;;;6.00;2.53;;;5.90;99.90;;;;;;5093455;29;20708;-75
2021/04/16 07:50:31;;;;;;;6.77;3.03;;;5.90;99.90;;;;;;5081704;29;20216;-75
2021/04/16 07:53:02;;;;;;;5.33;2.10;;;5.90;99.90;;;;;;5082471;29;20587;-72
2021/04/16 07:55:34;;;;;;;4.57;2.00;;;6.00;99.90;;;;;;5065673;29;20207;-73
2021/04/16 07:58:21;;;;;;;3.27;1.87;;;6.10;99.90;;;;;;5091903;29;20628;-76
2021/04/16 08:00:53;;;;;;;6.63;2.07;;;6.20;99.90;;;;;;5064905;29;21579;-74
2021/04/16 08:03:26;;;;;;;8.07;2.30;;;6.20;99.90;;;;;;5082685;29;20194;-72
2021/04/16 08:06:00;;;;;;;5.67;1.80;;;6.20;99.90;;;;;;5093354;29;20198;-75
2021/04/16 08:08:33;;;;;;;4.53;1.90;;;6.10;99.90;;;;;;5078901;29;20194;-72
2021/04/16 08:11:04;;;;;;;3.77;1.93;;;6.10;99.90;;;;;;5091422;29;20791;-70
2021/04/16 08:13:53;;;;;;;6.47;2.30;;;6.20;99.90;;;;;;5093767;29;20436;-71
2021/04/16 08:16:34;;;;;;;9.65;2.90;;;6.10;99.90;;;;;;5144148;28;20475;-72
2021/04/16 08:19:21;;;;;;;4.70;2.30;;;6.10;99.90;;;;;;5166832;28;20206;-70
2021/04/16 08:21:57;;;;;;;5.10;2.13;;;6.10;99.90;;;;;;5180145;28;20205;-69
2021/04/16 08:24:56;;;;;;;6.13;2.17;;;6.00;99.90;;;;;;5181473;28;20283;-71
2021/04/16 08:27:43;;;;;;;8.60;2.50;;;5.90;99.90;;;;;;5180208;28;20261;-71
2021/04/16 08:30:27;;;;;;;6.37;2.17;;;6.00;99.90;;;;;;5168222;28;20558;-72
2021/04/16 08:33:37;;;;;;;5.67;2.40;;;6.00;99.90;;;;;;5181213;28;20234;-70
2021/04/16 08:36:33;;;;;;;6.90;2.40;;;6.10;99.90;;;;;;5180805;28;20706;-69
2021/04/16 08:39:22;;;;;;;7.93;2.10;;;6.30;99.90;;;;;;5180865;28;20269;-69
2021/04/16 08:42:09;;;;;;;6.80;2.13;;;6.50;99.90;;;;;;5182352;28;20206;-70
2021/04/16 08:44:51;;;;;;;9.13;2.07;;;6.50;99.90;;;;;;5181038;28;20187;-71
2021/04/16 08:47:27;;;;;;;5.23;2.60;;;6.70;99.90;;;;;;5179487;28;20215;-72
2021/04/16 08:50:00;;;;;;;6.23;2.30;;;6.80;99.90;;;;;;5180549;28;20264;-73
2021/04/16 08:52:45;;;;;;;6.60;2.33;;;7.00;99.90;;;;;;5181846;28;20213;-71
2021/04/16 08:55:35;;;;;;;5.47;2.30;;;7.00;99.90;;;;;;5181561;28;20191;-72
2021/04/16 08:58:30;;;;;;;5.70;2.37;;;7.00;99.90;;;;;;5164356;28;20559;-71
2021/04/16 09:01:12;;;;;;;7.77;2.20;;;7.00;99.90;;;;;;5182736;28;20642;-70
2021/04/16 09:03:54;;;;;;;6.23;2.00;;;7.00;99.90;;;;;;5183357;28;20237;-70
2021/04/16 09:06:32;;;;;;;6.57;1.80;;;7.00;99.90;;;;;;5144427;28;20677;-71
2021/04/16 09:09:06;;;;;;;4.00;1.63;;;6.90;99.90;;;;;;5180867;28;20194;-72
2021/04/16 09:11:41;;;;;;;5.70;1.83;;;6.80;99.90;;;;;;5180424;28;20189;-69
2021/04/16 09:14:24;;;;;;;6.53;2.40;;;6.80;99.90;;;;;;5180419;28;20197;-63
2021/04/16 09:16:58;;;;;;;8.80;1.93;;;6.50;99.90;;;;;;5182589;28;20256;-66
2021/04/16 09:19:29;;;;;;;12.27;2.23;;;6.50;99.90;;;;;;5182087;28;20589;-68
2021/04/16 09:22:04;;;;;;;7.13;1.90;;;6.50;99.90;;;;;;5181173;28;20209;-69
2021/04/16 09:24:41;;;;;;;3.40;1.70;;;6.50;99.90;;;;;;5178566;28;20621;-71
2021/04/16 09:27:24;;;;;;;3.03;2.20;;;6.70;99.90;;;;;;5182263;28;20221;-70
2021/04/16 09:29:59;;;;;;;7.90;2.03;;;6.80;99.90;;;;;;5180352;28;20206;-69
2021/04/16 09:32:34;;;;;;;4.23;1.70;;;6.90;99.90;;;;;;5182387;28;20285;-70
2021/04/16 09:35:37;;;;;;;5.03;1.80;;;7.00;99.90;;;;;;5181817;28;20209;-68
2021/04/16 09:38:24;;;;;;;5.65;2.25;;;7.20;99.90;;;;;;5180760;28;20425;-70
2021/04/16 09:41:31;;;;;;;5.17;1.93;;;7.20;99.90;;;;;;5181896;28;20221;-70
2021/04/16 09:44:27;;;;;;;7.53;2.43;;;7.30;99.90;;;;;;5174494;28;20213;-68
2021/04/16 09:47:04;;;;;;;5.07;1.90;;;7.30;99.90;;;;;;5177739;28;20254;-71
2021/04/16 09:49:55;;;;;;;6.03;1.87;;;7.30;99.90;;;;;;5182741;28;20213;-69
2021/04/16 09:52:35;;;;;;;7.60;2.90;;;7.50;99.90;;;;;;5179471;28;20205;-65
2021/04/16 09:55:44;;;;;;;7.87;2.67;;;7.60;99.90;;;;;;5181134;28;20939;-66
2021/04/16 10:01:19;;;;;;;6.33;2.57;;;7.80;99.90;;;;;;5163738;28;20280;-68
2021/04/16 10:03:55;;;;;;;7.83;2.50;;;7.60;99.90;;;;;;5169833;28;20723;-69
2021/04/16 10:06:32;;;;;;;8.13;2.40;;;7.60;99.90;;;;;;5181964;28;20261;-74
2021/04/16 10:09:10;;;;;;;3.77;1.70;;;7.50;99.90;;;;;;5171711;28;20210;-70
2021/04/16 10:11:58;;;;;;;6.33;2.10;;;7.60;99.90;;;;;;5181514;28;20194;-74
2021/04/16 10:14:33;;;;;;;6.73;2.40;;;7.50;99.90;;;;;;5165684;28;20287;-75
2021/04/16 10:17:06;;;;;;;5.13;1.70;;;7.60;99.90;;;;;;5182635;28;20208;-78
2021/04/16 10:19:40;;;;;;;5.13;1.93;;;7.60;99.90;;;;;;5184088;28;20209;-72
2021/04/16 10:22:22;;;;;;;3.90;1.67;;;7.40;99.90;;;;;;5167436;28;20206;-73
2021/04/16 11:45:55;;;;;;;10.40;2.17;;;7.30;99.90;;;;;;5122406;28;20214;-73
2021/04/16 12:40:24;;;;;;;6.60;2.70;;;7.10;99.90;;;;;;5163128;28;20227;-70
2021/04/16 12:42:57;;;;;;;7.53;3.00;;;7.20;99.90;;;;;;5164063;28;20200;-71
2021/04/16 12:45:29;;;;;;;6.63;2.80;;;7.20;99.90;;;;;;5163423;28;20199;-68
2021/04/16 12:48:01;;;;;;;7.60;2.70;;;7.20;99.90;;;;;;5163261;28;20230;-68
2021/04/16 12:50:33;;;;;;;7.77;2.53;;;7.30;99.90;;;;;;5163191;28;20203;-70
2021/04/16 12:53:04;;;;;;;7.43;2.47;;;7.40;99.90;;;;;;5157208;28;20274;-72
2021/04/16 12:55:36;;;;;;;6.80;2.57;;;7.40;99.90;;;;;;5163139;28;20226;-73
2021/04/16 12:58:10;;;;;;;8.67;3.07;;;7.50;99.90;;;;;;5162434;28;20208;-74
2021/04/16 13:00:44;;;;;;;6.20;3.20;;;7.30;99.90;;;;;;5162245;28;20213;-72
2021/04/16 13:03:20;;;;;;;9.37;2.90;;;7.00;99.90;;;;;;5162063;28;20200;-72
2021/04/16 13:05:52;;;;;;;6.53;2.60;;;6.80;99.90;;;;;;5182777;28;20217;-73
2021/04/16 13:08:24;;;;;;;6.80;3.10;;;6.80;99.90;;;;;;5180897;28;20320;-72
2021/04/16 13:10:56;;;;;;;7.33;2.73;;;6.70;99.90;;;;;;5182095;28;20270;-73
2021/04/16 13:13:27;;;;;;;7.13;2.93;;;6.60;99.90;;;;;;5181907;28;20206;-72
2021/04/16 13:15:59;;;;;;;8.03;2.63;;;6.60;99.90;;;;;;5181217;28;20195;-72
2021/04/16 13:18:34;;;;;;;10.13;2.40;;;6.50;99.90;;;;;;5182150;28;20203;-71
2021/04/16 13:21:15;;;;;;;7.67;3.03;;;6.50;99.90;;;;;;5182504;28;20205;-71
2021/04/16 13:23:47;;;;;;;10.07;3.63;;;6.40;99.90;;;;;;5181661;28;20207;-72
2021/04/16 13:26:19;;;;;;;12.75;4.50;;;6.40;99.90;;;;;;5180733;28;20417;-72
2021/04/16 13:28:51;;;;;;;10.63;3.30;;;6.30;99.90;;;;;;5181981;28;20229;-72
2021/04/16 13:31:27;;;;;;;8.77;2.70;;;6.20;99.90;;;;;;5181968;28;20202;-72
2021/04/16 13:34:01;;;;;;;4.53;2.50;;;6.10;99.90;;;;;;5175526;28;20201;-69
2021/04/16 13:36:34;;;;;;;8.27;2.80;;;6.00;99.90;;;;;;5177975;28;20282;-71
2021/04/16 13:39:06;;;;;;;7.87;2.70;;;6.00;99.90;;;;;;5181776;28;20206;-72
2021/04/16 13:41:39;;;;;;;8.40;2.60;;;6.00;99.90;;;;;;5181441;28;20183;-73
2021/04/16 13:44:11;;;;;;;6.23;2.70;;;5.90;99.90;;;;;;5176229;28;21119;-72
2021/04/16 13:46:43;;;;;;;7.13;3.10;;;5.90;99.90;;;;;;5178052;28;20198;-72
2021/04/16 13:49:24;;;;;;;11.10;3.40;;;5.90;99.90;;;;;;5181622;28;20314;-73
2021/04/16 13:51:55;;;;;;;7.57;2.77;;;5.90;99.90;;;;;;5180574;28;20642;-73
2021/04/16 13:54:27;;;;;;;7.07;2.70;;;5.70;99.90;;;;;;5181814;28;20199;-71
2021/04/16 13:56:58;;;;;;;6.27;2.50;;;5.70;99.90;;;;;;5182749;28;20188;-70
2021/04/16 13:59:33;;;;;;;8.17;2.93;;;5.70;99.90;;;;;;5185893;28;20207;-71
2021/04/16 14:02:06;;;;;;;13.87;3.10;;;5.80;99.90;;;;;;5168740;28;20200;-73
2021/04/16 14:04:40;;;;;;;8.43;2.60;;;5.80;99.90;;;;;;5133061;28;20851;-69
2021/04/16 14:07:13;;;;;;;6.10;2.50;;;5.90;99.90;;;;;;5185668;28;20237;-69
2021/04/16 14:09:44;;;;;;;8.97;2.73;;;5.90;99.90;;;;;;5183576;28;20187;-74
2021/04/16 14:12:15;;;;;;;6.27;2.10;;;5.90;99.90;;;;;;5185294;28;20199;-72
2021/04/16 14:14:47;;;;;;;9.47;2.50;;;5.90;99.90;;;;;;5184200;28;20265;-75
2021/04/16 14:17:26;;;;;;;7.90;2.60;;;6.00;99.90;;;;;;5168126;28;20199;-75
2021/04/16 14:20:02;;;;;;;7.83;2.40;;;6.00;99.90;;;;;;5184404;28;20581;-73
2021/04/16 14:22:44;;;;;;;6.90;3.00;;;6.00;99.90;;;;;;5185181;28;20210;-70
2021/04/16 14:25:26;;;;;;;4.77;2.53;;;6.00;99.90;;;;;;5184984;28;20203;-69
2021/04/16 14:27:58;;;;;;;4.87;2.00;;;6.00;99.90;;;;;;5183627;28;20719;-73
2021/04/16 14:30:33;;;;;;;8.57;2.57;;;6.00;99.90;;;;;;5184797;28;20203;-69
2021/04/16 14:33:09;;;;;;;3.30;2.33;;;5.90;99.90;;;;;;5162686;28;20249;-70
2021/04/16 14:36:12;;;;;;;10.53;2.80;;;5.90;99.90;;;;;;5173962;28;20201;-70
2021/04/16 14:38:49;;;;;;;6.90;2.43;;;5.90;99.90;;;;;;5184215;28;20226;-71
2021/04/16 14:41:27;;;;;;;6.43;2.20;;;5.90;99.90;;;;;;5185699;28;20210;-70
2021/04/16 14:44:20;;;;;;;6.03;2.77;;;5.90;99.90;;;;;;5185025;28;20222;-69
2021/04/16 14:47:00;;;;;;;5.03;1.93;;;6.00;99.90;;;;;;5185220;28;20665;-70
2021/04/16 14:49:36;;;;;;;5.87;2.43;;;6.20;99.90;;;;;;5167775;28;20211;-68
2021/04/16 14:52:14;;;;;;;5.83;2.33;;;6.30;99.90;;;;;;5168290;28;20202;-71
2021/04/16 14:54:49;;;;;;;7.77;2.47;;;6.40;99.90;;;;;;5184576;28;20206;-68
2021/04/16 14:57:30;;;;;;;4.30;1.97;;;6.30;99.90;;;;;;5184224;28;20203;-72
2021/04/16 15:00:09;;;;;;;6.23;2.13;;;6.40;99.90;;;;;;5166730;28;20209;-68
2021/04/16 15:02:40;;;;;;;4.47;1.93;;;6.40;99.90;;;;;;5184602;28;20649;-75
2021/04/16 15:05:13;;;;;;;10.73;2.93;;;6.30;99.90;;;;;;5162225;28;20266;-71
2021/04/16 15:07:51;;;;;;;8.17;2.57;;;6.20;99.90;;;;;;5163588;28;20243;-71
2021/04/16 15:10:28;;;;;;;10.03;2.80;;;6.10;99.90;;;;;;5163747;28;20199;-71
2021/04/16 15:13:00;;;;;;;6.77;2.73;;;6.00;99.90;;;;;;5164095;28;20202;-75
2021/04/16 15:15:35;;;;;;;8.90;2.83;;;5.90;99.90;;;;;;5163488;28;20207;-74
2021/04/16 15:18:11;;;;;;;6.53;2.93;;;5.70;99.90;;;;;;5163717;28;20196;-71
2021/04/16 15:20:45;;;;;;;8.53;2.40;;;5.70;99.90;;;;;;5159651;28;20210;-70
2021/04/16 15:23:17;;;;;;;9.97;3.30;;;5.70;99.90;;;;;;5160755;28;20214;-73
2021/04/16 15:25:54;;;;;;;6.97;2.57;;;5.70;99.90;;;;;;5164555;28;20222;-69
2021/04/16 15:28:27;;;;;;;5.80;2.67;;;5.80;99.90;;;;;;5164014;28;20705;-74
2021/04/16 15:31:07;;;;;;;8.77;3.00;;;5.80;99.90;;;;;;5164940;28;21003;-73
2021/04/16 15:48:08;;;;;;;5.10;2.13;;;5.90;99.90;;;;;;5161807;28;20246;-68
2021/04/16 15:50:44;;;;;;;6.97;2.50;;;6.00;99.90;;;;;;5163270;28;20195;-73
2021/04/16 15:53:19;;;;;;;6.33;2.00;;;6.00;99.90;;;;;;5161022;28;20322;-74
2021/04/16 15:55:52;;;;;;;8.93;2.63;;;6.00;99.90;;;;;;5161172;28;20226;-75
2021/04/16 15:58:27;;;;;;;6.67;2.30;;;5.90;99.90;;;;;;5160214;28;20196;-74
2021/04/16 16:01:00;;;;;;;5.73;2.40;;;5.90;99.90;;;;;;5161046;28;20199;-69
2021/04/16 16:03:32;;;;;;;5.73;2.53;;;5.90;99.90;;;;;;5160532;28;20721;-71
2021/04/16 16:06:05;;;;;;;8.17;2.47;;;5.90;99.90;;;;;;5182106;28;20884;-72
2021/04/16 16:08:37;;;;;;;10.00;2.70;;;5.90;99.90;;;;;;5181910;28;20229;-72
2021/04/16 16:11:21;;;;;;;5.87;2.80;;;6.00;99.90;;;;;;5179913;28;20551;-72